sensor_id;sensor_type;location;lat;lon;timestamp;temperature;humidity
5466;DHT22;2755;50.728;7.108;2023-12-04T00:00:26;0.40;1.00
5466;DHT22;2755;50.728;7.108;2023-12-04T00:02:52;0.80;1.00
5466;DHT22;2755;50.728;7.108;2023-12-04T00:05:18;0.30;1.00
5466;DHT22;2755;50.728;7.108;2023-12-04T00:07:43;0.70;1.00
5466;DHT22;2755;50.728;7.108;2023-12-04T00:10:09;0.50;1.00
5466;DHT22;2755;50.728;7.108;2023-12-04T00:12:35;0.60;1.00
5466;DHT22;2755;50.728;7.108;2023-12-04T00:15:00;0.40;1.00
5466;DHT22;2755;50.728;7.108;2023-12-04T00:17:26;0.80;1.00
5466;DHT22;2755;50.728;7.108;2023-12-04T00:19:51;0.40;1.00
5466;DHT22;2755;50.728;7.108;2023-12-04T00:22:17;0.40;1.00
5466;DHT22;2755;50.728;7.108;2023-12-04T00:24:42;0.70;1.00
5466;DHT22;2755;50.728;7.108;2023-12-04T00:27:08;0.10;1.00
5466;DHT22;2755;50.728;7.108;2023-12-04T00:32:03;0.40;1.00
5466;DHT22;2755;50.728;7.108;2023-12-04T00:34:29;0.20;1.00
5466;DHT22;2755;50.728;7.108;2023-12-04T00:36:54;0.00;1.00
5466;DHT22;2755;50.728;7.108;2023-12-04T00:39:20;0.40;1.00
5466;DHT22;2755;50.728;7.108;2023-12-04T00:41:46;-0.10;1.00
5466;DHT22;2755;50.728;7.108;2023-12-04T00:44:11;0.30;1.00
5466;DHT22;2755;50.728;7.108;2023-12-04T00:49:03;0.40;1.00
5466;DHT22;2755;50.728;7.108;2023-12-04T00:51:28;0.00;1.00
5466;DHT22;2755;50.728;7.108;2023-12-04T00:53:54;0.50;1.00
5466;DHT22;2755;50.728;7.108;2023-12-04T00:56:19;0.50;1.00
5466;DHT22;2755;50.728;7.108;2023-12-04T00:58:46;0.00;1.00
5466;DHT22;2755;50.728;7.108;2023-12-04T01:03:38;-0.20;1.00
5466;DHT22;2755;50.728;7.108;2023-12-04T01:06:03;0.30;1.00
5466;DHT22;2755;50.728;7.108;2023-12-04T01:08:29;0.30;1.00
5466;DHT22;2755;50.728;7.108;2023-12-04T01:13:20;0.40;1.00
5466;DHT22;2755;50.728;7.108;2023-12-04T01:15:46;0.70;1.00
5466;DHT22;2755;50.728;7.108;2023-12-04T01:18:13;0.20;1.00
5466;DHT22;2755;50.728;7.108;2023-12-04T01:23:05;0.70;1.00
5466;DHT22;2755;50.728;7.108;2023-12-04T01:25:31;0.70;1.00
5466;DHT22;2755;50.728;7.108;2023-12-04T01:27:56;-0.10;1.00
5466;DHT22;2755;50.728;7.108;2023-12-04T01:30:22;0.40;1.00
5466;DHT22;2755;50.728;7.108;2023-12-04T01:35:13;-0.20;1.00
5466;DHT22;2755;50.728;7.108;2023-12-04T01:37:39;0.50;1.00
5466;DHT22;2755;50.728;7.108;2023-12-04T01:40:05;1.00;1.00
5466;DHT22;2755;50.728;7.108;2023-12-04T01:42:32;-0.30;1.00
5466;DHT22;2755;50.728;7.108;2023-12-04T01:44:57;0.00;1.00
5466;DHT22;2755;50.728;7.108;2023-12-04T01:47:24;0.00;1.00
5466;DHT22;2755;50.728;7.108;2023-12-04T01:49:50;0.40;1.00
5466;DHT22;2755;50.728;7.108;2023-12-04T01:52:16;-0.30;1.00
5466;DHT22;2755;50.728;7.108;2023-12-04T01:54:42;-0.20;1.00
5466;DHT22;2755;50.728;7.108;2023-12-04T01:57:08;-0.60;1.00
5466;DHT22;2755;50.728;7.108;2023-12-04T01:59:34;-0.60;1.00
5466;DHT22;2755;50.728;7.108;2023-12-04T02:02:01;0.30;1.00
5466;DHT22;2755;50.728;7.108;2023-12-04T02:09:19;0.20;1.00
5466;DHT22;2755;50.728;7.108;2023-12-04T02:11:45;0.30;1.00
5466;DHT22;2755;50.728;7.108;2023-12-04T02:14:11;0.50;1.00
5466;DHT22;2755;50.728;7.108;2023-12-04T02:16:40;0.70;1.00
5466;DHT22;2755;50.728;7.108;2023-12-04T02:19:11;0.20;1.00
5466;DHT22;2755;50.728;7.108;2023-12-04T02:21:37;0.10;1.00
5466;DHT22;2755;50.728;7.108;2023-12-04T02:24:03;0.40;1.00
5466;DHT22;2755;50.728;7.108;2023-12-04T02:26:33;0.50;1.00
5466;DHT22;2755;50.728;7.108;2023-12-04T02:29:05;0.50;1.00
5466;DHT22;2755;50.728;7.108;2023-12-04T02:31:34;0.40;1.00
5466;DHT22;2755;50.728;7.108;2023-12-04T02:34:01;-0.10;1.00
5466;DHT22;2755;50.728;7.108;2023-12-04T02:36:29;0.20;1.00
5466;DHT22;2755;50.728;7.108;2023-12-04T02:38:56;0.40;1.00
5466;DHT22;2755;50.728;7.108;2023-12-04T02:41:22;-0.10;1.00
5466;DHT22;2755;50.728;7.108;2023-12-04T02:43:47;0.60;1.00
5466;DHT22;2755;50.728;7.108;2023-12-04T02:46:13;0.20;1.00
5466;DHT22;2755;50.728;7.108;2023-12-04T02:48:38;0.40;1.00
5466;DHT22;2755;50.728;7.108;2023-12-04T02:51:05;0.10;1.00
5466;DHT22;2755;50.728;7.108;2023-12-04T02:53:30;-0.50;1.00
5466;DHT22;2755;50.728;7.108;2023-12-04T02:55:56;0.10;1.00
5466;DHT22;2755;50.728;7.108;2023-12-04T02:58:21;0.10;1.00
5466;DHT22;2755;50.728;7.108;2023-12-04T03:00:47;-0.20;1.00
5466;DHT22;2755;50.728;7.108;2023-12-04T03:03:12;0.20;1.00
5466;DHT22;2755;50.728;7.108;2023-12-04T03:05:38;-0.20;1.00
5466;DHT22;2755;50.728;7.108;2023-12-04T03:10:30;0.20;1.00
5466;DHT22;2755;50.728;7.108;2023-12-04T03:15:21;-0.10;1.00
5466;DHT22;2755;50.728;7.108;2023-12-04T03:17:47;0.90;1.00
5466;DHT22;2755;50.728;7.108;2023-12-04T03:20:12;0.00;1.00
5466;DHT22;2755;50.728;7.108;2023-12-04T03:25:04;-0.10;1.00
5466;DHT22;2755;50.728;7.108;2023-12-04T03:27:30;0.10;1.00
5466;DHT22;2755;50.728;7.108;2023-12-04T03:32:21;-0.10;1.00
5466;DHT22;2755;50.728;7.108;2023-12-04T03:37:13;-0.20;1.00
5466;DHT22;2755;50.728;7.108;2023-12-04T03:39:39;0.40;1.00
5466;DHT22;2755;50.728;7.108;2023-12-04T03:42:04;0.30;1.00
5466;DHT22;2755;50.728;7.108;2023-12-04T03:44:30;-0.30;1.00
5466;DHT22;2755;50.728;7.108;2023-12-04T03:46:55;-0.30;1.00
5466;DHT22;2755;50.728;7.108;2023-12-04T03:49:21;-1.10;1.00
5466;DHT22;2755;50.728;7.108;2023-12-04T03:54:13;-0.40;1.00
5466;DHT22;2755;50.728;7.108;2023-12-04T03:56:39;0.00;1.00
5466;DHT22;2755;50.728;7.108;2023-12-04T03:59:05;-0.20;1.00
5466;DHT22;2755;50.728;7.108;2023-12-04T04:03:56;-0.30;1.00
5466;DHT22;2755;50.728;7.108;2023-12-04T04:06:22;-0.40;1.00
5466;DHT22;2755;50.728;7.108;2023-12-04T04:08:48;0.30;1.00
5466;DHT22;2755;50.728;7.108;2023-12-04T04:11:13;-0.20;1.00
5466;DHT22;2755;50.728;7.108;2023-12-04T04:16:05;-0.10;1.00
5466;DHT22;2755;50.728;7.108;2023-12-04T04:18:31;-0.40;1.00
5466;DHT22;2755;50.728;7.108;2023-12-04T04:20:56;-0.40;1.00
5466;DHT22;2755;50.728;7.108;2023-12-04T04:23:22;-0.20;1.00
5466;DHT22;2755;50.728;7.108;2023-12-04T04:25:47;-0.20;1.00
5466;DHT22;2755;50.728;7.108;2023-12-04T04:28:13;0.30;1.00
5466;DHT22;2755;50.728;7.108;2023-12-04T04:30:38;-0.30;1.00
5466;DHT22;2755;50.728;7.108;2023-12-04T04:33:05;-0.10;1.00
5466;DHT22;2755;50.728;7.108;2023-12-04T04:35:30;-0.20;1.00
5466;DHT22;2755;50.728;7.108;2023-12-04T04:38:02;-0.70;1.00
5466;DHT22;2755;50.728;7.108;2023-12-04T04:40:28;-0.20;1.00
5466;DHT22;2755;50.728;7.108;2023-12-04T04:42:53;-0.30;1.00
5466;DHT22;2755;50.728;7.108;2023-12-04T04:45:19;-0.70;1.00
5466;DHT22;2755;50.728;7.108;2023-12-04T04:47:44;0.00;1.00
5466;DHT22;2755;50.728;7.108;2023-12-04T04:50:10;-0.10;1.00
5466;DHT22;2755;50.728;7.108;2023-12-04T04:52:35;-0.10;1.00
5466;DHT22;2755;50.728;7.108;2023-12-04T04:57:27;0.30;1.00
5466;DHT22;2755;50.728;7.108;2023-12-04T04:59:53;-0.30;1.00
5466;DHT22;2755;50.728;7.108;2023-12-04T05:02:18;-0.40;1.00
5466;DHT22;2755;50.728;7.108;2023-12-04T05:04:44;-0.20;1.00
5466;DHT22;2755;50.728;7.108;2023-12-04T05:07:10;-0.10;1.00
5466;DHT22;2755;50.728;7.108;2023-12-04T05:09:35;-0.90;1.00
5466;DHT22;2755;50.728;7.108;2023-12-04T05:12:01;-0.20;1.00
5466;DHT22;2755;50.728;7.108;2023-12-04T05:16:52;-0.10;1.00
5466;DHT22;2755;50.728;7.108;2023-12-04T05:19:18;-1.20;1.00
5466;DHT22;2755;50.728;7.108;2023-12-04T05:21:43;-0.30;1.00
5466;DHT22;2755;50.728;7.108;2023-12-04T05:24:09;0.00;1.00
5466;DHT22;2755;50.728;7.108;2023-12-04T05:26:35;0.20;1.00
5466;DHT22;2755;50.728;7.108;2023-12-04T05:29:00;-0.30;1.00
5466;DHT22;2755;50.728;7.108;2023-12-04T05:31:26;0.30;1.00
5466;DHT22;2755;50.728;7.108;2023-12-04T05:33:52;-0.30;1.00
5466;DHT22;2755;50.728;7.108;2023-12-04T05:36:17;-0.60;1.00
5466;DHT22;2755;50.728;7.108;2023-12-04T05:38:43;-0.40;1.00
5466;DHT22;2755;50.728;7.108;2023-12-04T05:41:08;-0.10;1.00
5466;DHT22;2755;50.728;7.108;2023-12-04T05:43:34;-0.30;1.00
5466;DHT22;2755;50.728;7.108;2023-12-04T05:45:59;-0.30;1.00
5466;DHT22;2755;50.728;7.108;2023-12-04T05:48:25;-0.20;1.00
5466;DHT22;2755;50.728;7.108;2023-12-04T05:53:17;0.00;1.00
5466;DHT22;2755;50.728;7.108;2023-12-04T05:55:43;-0.10;1.00
5466;DHT22;2755;50.728;7.108;2023-12-04T05:58:08;-0.20;1.00
5466;DHT22;2755;50.728;7.108;2023-12-04T06:00:34;0.70;1.00
5466;DHT22;2755;50.728;7.108;2023-12-04T06:02:59;0.00;1.00
5466;DHT22;2755;50.728;7.108;2023-12-04T06:07:51;-0.40;1.00
5466;DHT22;2755;50.728;7.108;2023-12-04T06:12:42;0.70;1.00
5466;DHT22;2755;50.728;7.108;2023-12-04T06:17:34;-0.50;1.00
5466;DHT22;2755;50.728;7.108;2023-12-04T06:20:00;-0.20;1.00
5466;DHT22;2755;50.728;7.108;2023-12-04T06:22:26;1.50;1.00
5466;DHT22;2755;50.728;7.108;2023-12-04T06:24:52;-0.40;1.00
5466;DHT22;2755;50.728;7.108;2023-12-04T06:27:18;-0.40;1.00
5466;DHT22;2755;50.728;7.108;2023-12-04T06:34:41;-0.10;1.00
5466;DHT22;2755;50.728;7.108;2023-12-04T06:37:10;0.10;1.00
5466;DHT22;2755;50.728;7.108;2023-12-04T06:39:37;-0.80;1.00
5466;DHT22;2755;50.728;7.108;2023-12-04T06:42:07;0.00;1.00
5466;DHT22;2755;50.728;7.108;2023-12-04T06:44:34;0.30;1.00
5466;DHT22;2755;50.728;7.108;2023-12-04T06:47:03;-0.10;1.00
5466;DHT22;2755;50.728;7.108;2023-12-04T06:49:30;0.00;1.00
5466;DHT22;2755;50.728;7.108;2023-12-04T06:51:56;0.00;1.00
5466;DHT22;2755;50.728;7.108;2023-12-04T06:54:22;0.30;1.00
5466;DHT22;2755;50.728;7.108;2023-12-04T06:59:13;1.20;1.00
5466;DHT22;2755;50.728;7.108;2023-12-04T07:01:39;0.20;1.00
5466;DHT22;2755;50.728;7.108;2023-12-04T07:04:04;0.30;1.00
5466;DHT22;2755;50.728;7.108;2023-12-04T07:06:38;0.30;1.00
5466;DHT22;2755;50.728;7.108;2023-12-04T07:09:04;-0.20;1.00
5466;DHT22;2755;50.728;7.108;2023-12-04T07:11:30;0.30;1.00
5466;DHT22;2755;50.728;7.108;2023-12-04T07:16:21;0.30;1.00
5466;DHT22;2755;50.728;7.108;2023-12-04T07:18:47;-0.40;1.00
5466;DHT22;2755;50.728;7.108;2023-12-04T07:21:13;0.30;1.00
5466;DHT22;2755;50.728;7.108;2023-12-04T07:23:38;0.20;1.00
5466;DHT22;2755;50.728;7.108;2023-12-04T07:26:04;0.70;1.00
5466;DHT22;2755;50.728;7.108;2023-12-04T07:28:32;0.90;1.00
5466;DHT22;2755;50.728;7.108;2023-12-04T07:40:44;0.40;1.00
5466;DHT22;2755;50.728;7.108;2023-12-04T07:43:10;0.40;1.00
5466;DHT22;2755;50.728;7.108;2023-12-04T07:45:35;0.30;1.00
5466;DHT22;2755;50.728;7.108;2023-12-04T07:48:03;0.80;1.00
5466;DHT22;2755;50.728;7.108;2023-12-04T07:50:29;0.40;1.00
5466;DHT22;2755;50.728;7.108;2023-12-04T07:52:54;-0.20;1.00
5466;DHT22;2755;50.728;7.108;2023-12-04T08:00:13;0.40;1.00
5466;DHT22;2755;50.728;7.108;2023-12-04T08:05:05;-0.50;1.00
5466;DHT22;2755;50.728;7.108;2023-12-04T08:07:32;0.40;1.00
5466;DHT22;2755;50.728;7.108;2023-12-04T08:09:57;0.50;1.00
5466;DHT22;2755;50.728;7.108;2023-12-04T08:12:23;0.20;1.00
5466;DHT22;2755;50.728;7.108;2023-12-04T08:14:48;0.40;1.00
5466;DHT22;2755;50.728;7.108;2023-12-04T08:17:14;-0.10;1.00
5466;DHT22;2755;50.728;7.108;2023-12-04T08:19:40;0.20;1.00
5466;DHT22;2755;50.728;7.108;2023-12-04T08:22:05;0.40;1.00
5466;DHT22;2755;50.728;7.108;2023-12-04T08:24:31;0.30;1.00
5466;DHT22;2755;50.728;7.108;2023-12-04T08:29:23;0.20;1.00
5466;DHT22;2755;50.728;7.108;2023-12-04T08:31:49;-0.40;1.00
5466;DHT22;2755;50.728;7.108;2023-12-04T08:34:14;0.40;1.00
5466;DHT22;2755;50.728;7.108;2023-12-04T08:36:41;1.10;1.00
5466;DHT22;2755;50.728;7.108;2023-12-04T08:41:32;0.50;1.00
5466;DHT22;2755;50.728;7.108;2023-12-04T08:43:58;0.20;1.00
5466;DHT22;2755;50.728;7.108;2023-12-04T08:48:49;0.60;1.00
5466;DHT22;2755;50.728;7.108;2023-12-04T08:51:16;1.00;1.00
5466;DHT22;2755;50.728;7.108;2023-12-04T08:56:08;0.70;1.00
5466;DHT22;2755;50.728;7.108;2023-12-04T08:58:34;0.30;1.00
5466;DHT22;2755;50.728;7.108;2023-12-04T09:03:26;0.80;1.00
5466;DHT22;2755;50.728;7.108;2023-12-04T09:08:18;0.90;1.00
5466;DHT22;2755;50.728;7.108;2023-12-04T09:13:14;0.10;1.00
5466;DHT22;2755;50.728;7.108;2023-12-04T09:15:39;0.40;1.00
5466;DHT22;2755;50.728;7.108;2023-12-04T09:27:49;0.60;1.00
5466;DHT22;2755;50.728;7.108;2023-12-04T09:32:40;0.40;1.00
5466;DHT22;2755;50.728;7.108;2023-12-04T09:35:06;0.60;1.00
5466;DHT22;2755;50.728;7.108;2023-12-04T09:37:32;1.20;1.00
5466;DHT22;2755;50.728;7.108;2023-12-04T09:42:24;1.00;1.00
5466;DHT22;2755;50.728;7.108;2023-12-04T09:44:52;1.10;1.00
5466;DHT22;2755;50.728;7.108;2023-12-04T09:47:18;1.60;1.00
5466;DHT22;2755;50.728;7.108;2023-12-04T09:49:45;1.30;1.00
5466;DHT22;2755;50.728;7.108;2023-12-04T09:52:11;1.40;1.00
5466;DHT22;2755;50.728;7.108;2023-12-04T09:54:37;0.80;1.00
5466;DHT22;2755;50.728;7.108;2023-12-04T09:57:05;1.10;1.00
5466;DHT22;2755;50.728;7.108;2023-12-04T09:59:31;1.40;1.00
5466;DHT22;2755;50.728;7.108;2023-12-04T10:01:57;1.60;1.00
5466;DHT22;2755;50.728;7.108;2023-12-04T10:04:24;1.40;1.00
5466;DHT22;2755;50.728;7.108;2023-12-04T10:06:51;1.80;1.00
5466;DHT22;2755;50.728;7.108;2023-12-04T10:09:18;1.70;1.00
5466;DHT22;2755;50.728;7.108;2023-12-04T10:11:46;1.10;1.00
5466;DHT22;2755;50.728;7.108;2023-12-04T10:14:17;0.80;1.00
5466;DHT22;2755;50.728;7.108;2023-12-04T10:16:42;1.10;1.00
5466;DHT22;2755;50.728;7.108;2023-12-04T10:19:18;1.20;1.00
5466;DHT22;2755;50.728;7.108;2023-12-04T10:21:46;1.20;1.00
5466;DHT22;2755;50.728;7.108;2023-12-04T10:24:11;1.60;1.00
5466;DHT22;2755;50.728;7.108;2023-12-04T10:26:38;1.20;1.00
5466;DHT22;2755;50.728;7.108;2023-12-04T10:36:35;-0.10;1.00
5466;DHT22;2755;50.728;7.108;2023-12-04T10:39:02;1.20;1.00
5466;DHT22;2755;50.728;7.108;2023-12-04T10:41:31;1.20;1.00
5466;DHT22;2755;50.728;7.108;2023-12-04T10:43:59;1.40;1.00
5466;DHT22;2755;50.728;7.108;2023-12-04T10:46:27;0.70;1.00
5466;DHT22;2755;50.728;7.108;2023-12-04T10:48:53;1.20;1.00
5466;DHT22;2755;50.728;7.108;2023-12-04T10:51:19;0.80;1.00
5466;DHT22;2755;50.728;7.108;2023-12-04T10:56:31;1.30;1.00
5466;DHT22;2755;50.728;7.108;2023-12-04T10:59:00;0.00;1.00
5466;DHT22;2755;50.728;7.108;2023-12-04T11:03:56;1.60;1.00
5466;DHT22;2755;50.728;7.108;2023-12-04T11:06:24;1.20;1.00
5466;DHT22;2755;50.728;7.108;2023-12-04T11:08:53;1.30;1.00
5466;DHT22;2755;50.728;7.108;2023-12-04T11:11:27;1.30;1.00
5466;DHT22;2755;50.728;7.108;2023-12-04T11:14:00;1.60;1.00
5466;DHT22;2755;50.728;7.108;2023-12-04T11:16:46;1.30;1.00
5466;DHT22;2755;50.728;7.108;2023-12-04T11:19:23;1.70;1.00
5466;DHT22;2755;50.728;7.108;2023-12-04T11:24:21;1.40;1.00
5466;DHT22;2755;50.728;7.108;2023-12-04T11:26:47;1.10;1.00
5466;DHT22;2755;50.728;7.108;2023-12-04T11:34:07;0.90;1.00
5466;DHT22;2755;50.728;7.108;2023-12-04T11:36:33;1.60;1.00
5466;DHT22;2755;50.728;7.108;2023-12-04T11:39:00;1.20;1.00
5466;DHT22;2755;50.728;7.108;2023-12-04T11:41:26;1.60;1.00
5466;DHT22;2755;50.728;7.108;2023-12-04T11:43:54;1.30;1.00
5466;DHT22;2755;50.728;7.108;2023-12-04T11:54:03;1.10;1.00
5466;DHT22;2755;50.728;7.108;2023-12-04T11:56:30;1.10;1.00
5466;DHT22;2755;50.728;7.108;2023-12-04T11:59:03;1.20;1.00
5466;DHT22;2755;50.728;7.108;2023-12-04T12:01:33;1.00;1.00
5466;DHT22;2755;50.728;7.108;2023-12-04T12:08:52;1.40;1.00
5466;DHT22;2755;50.728;7.108;2023-12-04T12:11:18;1.70;1.00
5466;DHT22;2755;50.728;7.108;2023-12-04T12:13:45;1.70;1.00
5466;DHT22;2755;50.728;7.108;2023-12-04T12:18:37;1.20;1.00
5466;DHT22;2755;50.728;7.108;2023-12-04T12:21:04;1.20;1.00
5466;DHT22;2755;50.728;7.108;2023-12-04T12:23:30;1.30;1.00
5466;DHT22;2755;50.728;7.108;2023-12-04T12:33:15;1.30;1.00
5466;DHT22;2755;50.728;7.108;2023-12-04T12:35:41;1.30;1.00
5466;DHT22;2755;50.728;7.108;2023-12-04T12:43:09;1.00;1.00
5466;DHT22;2755;50.728;7.108;2023-12-04T12:45:41;1.30;1.00
5466;DHT22;2755;50.728;7.108;2023-12-04T12:48:13;1.50;1.00
5466;DHT22;2755;50.728;7.108;2023-12-04T12:50:38;1.60;1.00
5466;DHT22;2755;50.728;7.108;2023-12-04T12:53:04;0.60;1.00
5466;DHT22;2755;50.728;7.108;2023-12-04T12:55:30;1.60;1.00
5466;DHT22;2755;50.728;7.108;2023-12-04T12:57:56;0.90;1.00
5466;DHT22;2755;50.728;7.108;2023-12-04T13:00:22;1.40;1.00
5466;DHT22;2755;50.728;7.108;2023-12-04T13:02:48;1.40;1.00
5466;DHT22;2755;50.728;7.108;2023-12-04T13:05:14;0.90;1.00
5466;DHT22;2755;50.728;7.108;2023-12-04T13:07:39;1.70;1.00
5466;DHT22;2755;50.728;7.108;2023-12-04T13:10:07;1.50;1.00
5466;DHT22;2755;50.728;7.108;2023-12-04T13:12:34;1.30;1.00
5466;DHT22;2755;50.728;7.108;2023-12-04T13:15:01;1.40;1.00
5466;DHT22;2755;50.728;7.108;2023-12-04T13:17:26;1.40;1.00
5466;DHT22;2755;50.728;7.108;2023-12-04T13:19:52;0.90;1.00
5466;DHT22;2755;50.728;7.108;2023-12-04T13:22:18;1.60;1.00
5466;DHT22;2755;50.728;7.108;2023-12-04T13:27:09;1.40;1.00
5466;DHT22;2755;50.728;7.108;2023-12-04T13:32:01;1.20;1.00
5466;DHT22;2755;50.728;7.108;2023-12-04T13:34:27;1.30;1.00
5466;DHT22;2755;50.728;7.108;2023-12-04T13:36:53;1.50;1.00
5466;DHT22;2755;50.728;7.108;2023-12-04T13:39:19;1.50;1.00
5466;DHT22;2755;50.728;7.108;2023-12-04T13:41:52;1.40;1.00
5466;DHT22;2755;50.728;7.108;2023-12-04T13:47:03;1.70;1.00
5466;DHT22;2755;50.728;7.108;2023-12-04T13:49:29;2.30;1.00
5466;DHT22;2755;50.728;7.108;2023-12-04T13:51:55;1.50;1.00
5466;DHT22;2755;50.728;7.108;2023-12-04T13:54:21;1.30;1.00
5466;DHT22;2755;50.728;7.108;2023-12-04T13:56:53;1.20;1.00
5466;DHT22;2755;50.728;7.108;2023-12-04T13:59:22;1.50;1.00
5466;DHT22;2755;50.728;7.108;2023-12-04T14:01:48;1.30;1.00
5466;DHT22;2755;50.728;7.108;2023-12-04T14:04:15;1.60;1.00
5466;DHT22;2755;50.728;7.108;2023-12-04T14:06:41;1.20;1.00
5466;DHT22;2755;50.728;7.108;2023-12-04T14:09:06;1.30;1.00
5466;DHT22;2755;50.728;7.108;2023-12-04T14:11:37;1.50;1.00
5466;DHT22;2755;50.728;7.108;2023-12-04T14:14:02;1.60;1.00
5466;DHT22;2755;50.728;7.108;2023-12-04T14:16:30;1.50;1.00
5466;DHT22;2755;50.728;7.108;2023-12-04T14:21:21;1.40;1.00
5466;DHT22;2755;50.728;7.108;2023-12-04T14:26:14;1.40;1.00
5466;DHT22;2755;50.728;7.108;2023-12-04T14:28:39;1.20;1.00
5466;DHT22;2755;50.728;7.108;2023-12-04T14:31:05;1.50;1.00
5466;DHT22;2755;50.728;7.108;2023-12-04T14:33:32;1.50;1.00
5466;DHT22;2755;50.728;7.108;2023-12-04T14:35:58;1.30;1.00
5466;DHT22;2755;50.728;7.108;2023-12-04T14:38:24;1.50;1.00
5466;DHT22;2755;50.728;7.108;2023-12-04T14:40:49;1.60;1.00
5466;DHT22;2755;50.728;7.108;2023-12-04T14:45:41;2.10;1.00
5466;DHT22;2755;50.728;7.108;2023-12-04T14:48:07;1.10;1.00
5466;DHT22;2755;50.728;7.108;2023-12-04T14:53:01;2.30;1.00
5466;DHT22;2755;50.728;7.108;2023-12-04T14:55:42;2.10;1.00
5466;DHT22;2755;50.728;7.108;2023-12-04T15:01:02;1.10;1.00
5466;DHT22;2755;50.728;7.108;2023-12-04T15:03:46;1.20;1.00
5466;DHT22;2755;50.728;7.108;2023-12-04T15:09:06;1.40;1.00
5466;DHT22;2755;50.728;7.108;2023-12-04T15:11:50;1.20;1.00
5466;DHT22;2755;50.728;7.108;2023-12-04T15:14:37;1.70;1.00
5466;DHT22;2755;50.728;7.108;2023-12-04T15:17:17;1.30;1.00
5466;DHT22;2755;50.728;7.108;2023-12-04T15:19:54;1.00;1.00
5466;DHT22;2755;50.728;7.108;2023-12-04T15:22:35;1.30;1.00
5466;DHT22;2755;50.728;7.108;2023-12-04T15:25:04;1.70;1.00
5466;DHT22;2755;50.728;7.108;2023-12-04T15:30:00;1.60;1.00
5466;DHT22;2755;50.728;7.108;2023-12-04T15:37:19;1.20;1.00
5466;DHT22;2755;50.728;7.108;2023-12-04T15:42:11;1.20;1.00
5466;DHT22;2755;50.728;7.108;2023-12-04T15:44:36;1.40;1.00
5466;DHT22;2755;50.728;7.108;2023-12-04T15:47:02;1.50;1.00
5466;DHT22;2755;50.728;7.108;2023-12-04T15:49:28;1.40;1.00
5466;DHT22;2755;50.728;7.108;2023-12-04T15:51:53;1.40;1.00
5466;DHT22;2755;50.728;7.108;2023-12-04T15:54:19;1.30;1.00
5466;DHT22;2755;50.728;7.108;2023-12-04T15:56:44;1.20;1.00
5466;DHT22;2755;50.728;7.108;2023-12-04T15:59:13;1.40;1.00
5466;DHT22;2755;50.728;7.108;2023-12-04T16:01:38;0.70;1.00
5466;DHT22;2755;50.728;7.108;2023-12-04T16:04:04;1.20;1.00
5466;DHT22;2755;50.728;7.108;2023-12-04T16:11:23;1.10;1.00
5466;DHT22;2755;50.728;7.108;2023-12-04T16:16:14;1.50;1.00
5466;DHT22;2755;50.728;7.108;2023-12-04T16:18:40;1.50;1.00
5466;DHT22;2755;50.728;7.108;2023-12-04T16:21:05;1.60;1.00
5466;DHT22;2755;50.728;7.108;2023-12-04T16:23:31;1.40;1.00
5466;DHT22;2755;50.728;7.108;2023-12-04T16:25:57;1.50;1.00
5466;DHT22;2755;50.728;7.108;2023-12-04T16:30:49;1.50;1.00
5466;DHT22;2755;50.728;7.108;2023-12-04T16:33:15;1.30;1.00
5466;DHT22;2755;50.728;7.108;2023-12-04T16:35:41;1.50;1.00
5466;DHT22;2755;50.728;7.108;2023-12-04T16:40:33;1.20;1.00
5466;DHT22;2755;50.728;7.108;2023-12-04T16:42:59;1.60;1.00
5466;DHT22;2755;50.728;7.108;2023-12-04T16:45:24;1.10;1.00
5466;DHT22;2755;50.728;7.108;2023-12-04T16:47:50;1.70;1.00
5466;DHT22;2755;50.728;7.108;2023-12-04T16:50:17;1.50;1.00
5466;DHT22;2755;50.728;7.108;2023-12-04T16:52:42;1.60;1.00
5466;DHT22;2755;50.728;7.108;2023-12-04T16:55:08;1.80;1.00
5466;DHT22;2755;50.728;7.108;2023-12-04T16:57:34;1.10;1.00
5466;DHT22;2755;50.728;7.108;2023-12-04T17:00:00;1.40;1.00
5466;DHT22;2755;50.728;7.108;2023-12-04T17:12:09;1.40;1.00
5466;DHT22;2755;50.728;7.108;2023-12-04T17:14:35;1.60;1.00
5466;DHT22;2755;50.728;7.108;2023-12-04T17:17:01;0.90;1.00
5466;DHT22;2755;50.728;7.108;2023-12-04T17:24:22;1.20;16.00
5466;DHT22;2755;50.728;7.108;2023-12-04T17:26:48;0.80;20.20
5466;DHT22;2755;50.728;7.108;2023-12-04T17:29:13;0.50;27.20
5466;DHT22;2755;50.728;7.108;2023-12-04T17:31:39;1.00;35.10
5466;DHT22;2755;50.728;7.108;2023-12-04T17:34:07;0.80;47.10
5466;DHT22;2755;50.728;7.108;2023-12-04T17:36:33;0.90;51.10
5466;DHT22;2755;50.728;7.108;2023-12-04T17:38:59;0.50;57.90
5466;DHT22;2755;50.728;7.108;2023-12-04T17:41:25;1.20;58.50
5466;DHT22;2755;50.728;7.108;2023-12-04T17:43:50;0.50;61.00
5466;DHT22;2755;50.728;7.108;2023-12-04T17:46:16;0.80;61.20
5466;DHT22;2755;50.728;7.108;2023-12-04T17:51:14;0.70;71.00
5466;DHT22;2755;50.728;7.108;2023-12-04T17:53:40;0.60;70.70
5466;DHT22;2755;50.728;7.108;2023-12-04T17:56:06;0.70;73.90
5466;DHT22;2755;50.728;7.108;2023-12-04T18:00:58;0.90;80.90
5466;DHT22;2755;50.728;7.108;2023-12-04T18:08:15;0.70;82.20
5466;DHT22;2755;50.728;7.108;2023-12-04T18:10:41;0.80;87.30
5466;DHT22;2755;50.728;7.108;2023-12-04T18:20:25;0.90;90.90
5466;DHT22;2755;50.728;7.108;2023-12-04T18:22:50;0.70;87.80
5466;DHT22;2755;50.728;7.108;2023-12-04T18:30:10;0.90;90.30
5466;DHT22;2755;50.728;7.108;2023-12-04T18:35:02;1.00;91.00
5466;DHT22;2755;50.728;7.108;2023-12-04T18:37:34;1.00;91.40
5466;DHT22;2755;50.728;7.108;2023-12-04T18:40:01;1.10;93.10
5466;DHT22;2755;50.728;7.108;2023-12-04T18:44:55;1.10;92.40
5466;DHT22;2755;50.728;7.108;2023-12-04T18:47:21;1.40;94.90
5466;DHT22;2755;50.728;7.108;2023-12-04T18:49:51;1.00;93.70
5466;DHT22;2755;50.728;7.108;2023-12-04T18:52:18;1.00;92.00
5466;DHT22;2755;50.728;7.108;2023-12-04T18:54:43;1.20;93.30
5466;DHT22;2755;50.728;7.108;2023-12-04T18:57:10;1.10;92.60
5466;DHT22;2755;50.728;7.108;2023-12-04T18:59:36;0.70;95.00
5466;DHT22;2755;50.728;7.108;2023-12-04T19:02:02;1.00;95.90
5466;DHT22;2755;50.728;7.108;2023-12-04T19:06:54;0.90;95.00
5466;DHT22;2755;50.728;7.108;2023-12-04T19:09:19;1.20;97.10
5466;DHT22;2755;50.728;7.108;2023-12-04T19:11:45;1.30;96.80
5466;DHT22;2755;50.728;7.108;2023-12-04T19:14:10;1.40;97.50
5466;DHT22;2755;50.728;7.108;2023-12-04T19:16:36;1.30;98.80
5466;DHT22;2755;50.728;7.108;2023-12-04T19:19:01;1.00;96.90
5466;DHT22;2755;50.728;7.108;2023-12-04T19:21:27;0.10;96.60
5466;DHT22;2755;50.728;7.108;2023-12-04T19:23:52;1.00;96.60
5466;DHT22;2755;50.728;7.108;2023-12-04T19:26:18;0.40;96.00
5466;DHT22;2755;50.728;7.108;2023-12-04T19:28:43;1.20;97.40
5466;DHT22;2755;50.728;7.108;2023-12-04T19:31:10;0.90;95.70
5466;DHT22;2755;50.728;7.108;2023-12-04T19:33:35;1.10;98.50
5466;DHT22;2755;50.728;7.108;2023-12-04T19:36:04;1.10;96.00
5466;DHT22;2755;50.728;7.108;2023-12-04T19:38:31;1.50;96.60
5466;DHT22;2755;50.728;7.108;2023-12-04T19:40:56;1.10;94.40
5466;DHT22;2755;50.728;7.108;2023-12-04T19:43:22;1.70;95.60
5466;DHT22;2755;50.728;7.108;2023-12-04T19:45:47;1.10;96.10
5466;DHT22;2755;50.728;7.108;2023-12-04T19:50:39;1.00;96.70
5466;DHT22;2755;50.728;7.108;2023-12-04T19:53:07;1.50;98.70
5466;DHT22;2755;50.728;7.108;2023-12-04T19:55:32;1.40;98.70
5466;DHT22;2755;50.728;7.108;2023-12-04T19:57:58;1.30;94.20
5466;DHT22;2755;50.728;7.108;2023-12-04T20:00:26;1.20;94.10
5466;DHT22;2755;50.728;7.108;2023-12-04T20:02:51;1.10;93.90
5466;DHT22;2755;50.728;7.108;2023-12-04T20:05:17;1.40;94.60
5466;DHT22;2755;50.728;7.108;2023-12-04T20:07:43;1.30;95.90
5466;DHT22;2755;50.728;7.108;2023-12-04T20:12:35;1.50;96.60
5466;DHT22;2755;50.728;7.108;2023-12-04T20:15:01;1.50;94.80
5466;DHT22;2755;50.728;7.108;2023-12-04T20:17:26;1.30;93.40
5466;DHT22;2755;50.728;7.108;2023-12-04T20:22:18;1.20;93.30
5466;DHT22;2755;50.728;7.108;2023-12-04T20:24:44;1.40;94.90
5466;DHT22;2755;50.728;7.108;2023-12-04T20:27:11;1.60;94.80
5466;DHT22;2755;50.728;7.108;2023-12-04T20:29:37;1.80;96.20
5466;DHT22;2755;50.728;7.108;2023-12-04T20:32:05;1.60;95.30
5466;DHT22;2755;50.728;7.108;2023-12-04T20:34:31;1.80;95.60
5466;DHT22;2755;50.728;7.108;2023-12-04T20:36:57;1.50;94.00
5466;DHT22;2755;50.728;7.108;2023-12-04T20:39:22;1.60;92.40